Список аэропортов
Фактическая погода:

15 августа, 16:00
Температура: +16°C (+15.4*)
Ветер: западный 4 м/с
Давление: *760 мм
разорв. обл.
кучево-дождевые 390 м
облачно
2970 м
слаб. ливневый дождь
Время (МСК)Темп. СВетерВлажностьДавлениеОблачностьОсадки
21:00+13В, 1 м/с96%1013 гПаоблачно
22:00+12В, 1 м/с99%1013 гПаоблачно
23:00+11В, 1 м/с99%1012 гПаоблачно
16 августа
00:00+10В, 1 м/с98%1012 гПаоблачно
01:00+10В, 1 м/с99%1012 гПаоблачно
02:00+9СВ, 1 м/с99%1012 гПаоблачно
03:00+9С, 1 м/с100%1012 гПамалооблачно
04:00+8С, 1 м/с100%1012 гПас прояснениями
05:00+8С, 1 м/с100%1012 гПаоблачно
06:00+10С, 1 м/с98%1012 гПаоблачно
07:00+12С, 1 м/с94%1012 гПаоблачно
08:00+14С, 1 м/с81%1012 гПаоблачно
09:00+17С, 1 м/с66%1012 гПамалооблачно
10:00+19С, 2 м/с58%1013 гПас прояснениями
11:00+19С, 2 м/с56%1013 гПас прояснениями
12:00+20С, 2 м/с56%1013 гПаоблачно
13:00+18С, 2 м/с74%1013 гПамалооблачно
14:00+20С, 2 м/с55%1014 гПаясно
15:00+20С, 1 м/с55%1014 гПамалооблачносл. дождь
16:00+17З, 2 м/с92%1014 гПаоблачнодождь
17:00+16З, 2 м/с96%1015 гПас прояснениямидождь
18:00+16З, 2 м/с97%1016 гПаоблачно
19:00+15З, 2 м/с98%1016 гПаоблачносл. дождь
20:00+15З, 2 м/с99%1016 гПаоблачно
21:00+14СЗ, 2 м/с98%1017 гПаоблачно
22:00+13СЗ, 2 м/с96%1018 гПаоблачно
23:00+12СЗ, 2 м/с97%1018 гПаоблачно
17 августа
00:00+12СЗ, 2 м/с97%1019 гПаоблачно
01:00+12СЗ, 2 м/с97%1020 гПаоблачно
02:00+11СЗ, 2 м/с97%1021 гПаоблачно
03:00+11СЗ, 2 м/с97%1022 гПаоблачно
04:00+11СЗ, 2 м/с97%1022 гПаоблачно
05:00+10СЗ, 1 м/с99%1022 гПаоблачно
06:00+10З, 1 м/с97%1023 гПамалооблачно
07:00+12З, 1 м/с94%1023 гПамалооблачно
08:00+13З, 1 м/с86%1023 гПамалооблачно
09:00+14З, 1 м/с83%1024 гПас прояснениямисл. дождь
10:00+14З, 2 м/с73%1024 гПаоблачно
11:00+16З, 2 м/с65%1024 гПаоблачно
12:00+17З, 3 м/с46%1023 гПаоблачно
13:00+17З, 2 м/с49%1024 гПаоблачно
14:00+17З, 3 м/с46%1024 гПаоблачно
15:00+18З, 2 м/с44%1024 гПас прояснениями
16:00+18СЗ, 2 м/с43%1023 гПаясно
17:00+18СЗ, 2 м/с45%1023 гПас прояснениями
18:00+16С, 1 м/с59%1023 гПаоблачно
19:00+15ЮВ, 1 м/с77%1023 гПаоблачно
20:00+12ЮВ, 1 м/с78%1023 гПаоблачно
21:00+11ЮВ, 1 м/с86%1024 гПаоблачно